Licenciado Manuel Crescencio Rejon Int Airport
MMMD : now visible

Airfield :











YOU CAN JOIN US ON...

 
LOGIN :

Register | Disclaimer

   EN    FR    IT 

 









Legend :    VFR   Marginal VFR   IFR   Intensive IFR   Very Intensive IFR
Visi :
Ceiling :
>= 8 km
>= 3000ft
5 to 8 km
1000 to 3000 ft
1500m to 5 km
500 to 1000 ft
800 to 1500m
200 to 500 ft
< 800m
< 200 ft
Symbols :   Thunderstorms  Fog  Heavy snow  Heavy precipitations  Wind > 20 kt






- Airport Elevation : 38 ft
- IATA code : MID


MMMD - Licenciado Manuel Crescencio Rejon Int

CURRENT METAR :
  • 061944Z 13007KT 7SM SKC 38/16 A2987 RMK CI FU N NE

EXPIRED METARs :
  • 061847Z 13010KT 7SM SKC 37/17 A2990 RMK CI FU
  • 061746Z 10004KT 7SM FEW300 35/18 A2994 RMK SLP140 57013 926 8/008

TAF TAF MMMD
Valid from the 06 at 18:00 until the 08 at 00:00 UTC


061656Z 0618/0724 12012KT P6SM SKC TX38/0720Z TN22/0710Z
BECMG 0619/0620 05015KT
FM070300 12012KT P6SM SKC
BECMG 0709/0710 4SM HZ BKN010
TEMPO 0710/0714 2SM BR HZ BKN005
FM071500 12010KT P6SM SKC
BECMG 0719/0720 06012KT



MET'MAP, your aeronautical weather chart ! - Copyright ORBIFLY December 2007 - Disclaimer

ORBIFLY MET'MAP TEAM :

Programming & Development : Alexandra Zaïnal
Concept & original design : Baudouin d'Aumeries
Assistance for programming : Marc-Olivier Méhu
Technical & hardware support : Manuel Goepfert

Contact : metmap@orbifly.com




SOURCES & CREDITS :

   NOAA       Earth
Advisory